Decoded Metar for USRR (SURGUT in RUSSIA) (IATA:SGC) | Meteo·Mobile Aviation Weather
aviador You're here:

USRR Decoded Metar

SURGUT in RUSSIA
Report Time2018-12-16 10:00:00
UTC Time2018-12-16 10:31:01
Flight Rules ifr IFR
Wind250° at 8 kt
W.Decomp.*RWY 25: 7.7 kt HW 2.2 kt LCW
W.Rank250° ranks 4
Current wind is below 250° avg. (8.9)
Visibility9999 m
Phenomena:N/A
Clouds:Broken 005 Hf
Broken CB 018 Hf
Ceiling500 ft
Temp-4°C (ISA -19)
Dew Point-4°C (100% RH)
AAT-9.4°C
QNH1017 hPa
Density Alt-2,238 ft
Elevation144 ft
Report Wrong Elevation
Raw Report
USRR 161000Z 25004MPS 9999 BKN005 BKN018CB M04/M04 Q1017
R25/39//35 NOSIG RMK OBST OBSC QFE758=

Extra information for USRR:More info

Metar Taf Metar & Taf Last 4 Metars F.Rules Stats Wind Profile Meteogram Temp Stats Airport Information Weather charts Add Link Nearby VenuesMetar ALERT Operation Metar Decoded Social comments